Kezdőlap
METAR-TAF:

METAR-TAF

Repülőterek :

Diourbel, Szenegál

földrajzi szélesség: 14-39N, földrajzi hosszúság: 016-14W, magasság: 7 m

Jelenlegi meteorológiai megfigyelések

A jelentés 1 órával és 11 perccel ezelõtt készült, 12:00 UTC
Észak-északkeleti szél 6 kt
Hőmérséklet 35°C
Páratartalom 23%
Légköri nyomás 1013 hPa
Látótávolság 10 km, vagy több
felhőtlen 1500 m magasságban, és nincs gomolyfelhõ

METAR: GOOD 291200Z 02006KT CAVOK 35/11 Q1013

Idő: 13:11 (13:11 UTC)


TAF: hiányzik

Meteorológiai megfigyelések és előrejelzések több, mint 4000 repülőtéren (METAR és TAF jelentéseket).

A térképen piros és sárga pontok jelzik az elérhető meteorológiai állomásokat.

Mozgassa az egeret a pont fölött, hogy megjelenjen az állomás neve.

Azután kattintson az időjárási megfigyelések és előrejelzések megtekintéséhez.

A térkép megváltoztatása: kattintson a fekete keresztel jelölt zöld gombra ráközelítéshez, a vonallal jelölt zöld gombra távolításhoz, vagy a zöld nyilakra a szomszédos térképek eléréséhez.


METAR-TAF: